sensor_id;sensor_type;location;lat;lon;timestamp;P1;durP1;ratioP1;P2;durP2;ratioP2
22679;SDS011;11507;44.858;10.374;2024-03-17T00:00:37;20.45;;;11.77;;
22679;SDS011;11507;44.858;10.374;2024-03-17T00:03:08;22.92;;;12.98;;
22679;SDS011;11507;44.858;10.374;2024-03-17T00:05:37;23.23;;;12.80;;
22679;SDS011;11507;44.858;10.374;2024-03-17T00:08:04;20.73;;;12.35;;
22679;SDS011;11507;44.858;10.374;2024-03-17T00:10:31;20.95;;;12.55;;
22679;SDS011;11507;44.858;10.374;2024-03-17T00:12:57;19.63;;;11.90;;
22679;SDS011;11507;44.858;10.374;2024-03-17T00:15:24;20.92;;;12.63;;
22679;SDS011;11507;44.858;10.374;2024-03-17T00:17:50;20.60;;;12.15;;
22679;SDS011;11507;44.858;10.374;2024-03-17T00:20:16;21.60;;;12.65;;
22679;SDS011;11507;44.858;10.374;2024-03-17T00:22:49;19.08;;;10.80;;
22679;SDS011;11507;44.858;10.374;2024-03-17T00:25:19;19.25;;;11.45;;
22679;SDS011;11507;44.858;10.374;2024-03-17T00:27:45;16.75;;;10.25;;
22679;SDS011;11507;44.858;10.374;2024-03-17T00:30:13;17.15;;;10.68;;
22679;SDS011;11507;44.858;10.374;2024-03-17T00:32:41;14.38;;;9.57;;
22679;SDS011;11507;44.858;10.374;2024-03-17T00:35:08;17.70;;;10.30;;
22679;SDS011;11507;44.858;10.374;2024-03-17T00:37:39;17.38;;;10.80;;
22679;SDS011;11507;44.858;10.374;2024-03-17T00:40:05;21.10;;;11.35;;
22679;SDS011;11507;44.858;10.374;2024-03-17T00:42:32;21.40;;;11.57;;
22679;SDS011;11507;44.858;10.374;2024-03-17T00:44:58;20.27;;;12.35;;
22679;SDS011;11507;44.858;10.374;2024-03-17T00:47:28;23.45;;;13.95;;
22679;SDS011;11507;44.858;10.374;2024-03-17T00:49:54;24.27;;;13.93;;
22679;SDS011;11507;44.858;10.374;2024-03-17T00:52:21;23.17;;;12.90;;
22679;SDS011;11507;44.858;10.374;2024-03-17T00:54:47;23.33;;;14.20;;
22679;SDS011;11507;44.858;10.374;2024-03-17T00:57:14;27.98;;;15.50;;
22679;SDS011;11507;44.858;10.374;2024-03-17T00:59:44;22.88;;;14.43;;
22679;SDS011;11507;44.858;10.374;2024-03-17T01:02:10;23.60;;;14.50;;
22679;SDS011;11507;44.858;10.374;2024-03-17T01:04:40;22.88;;;13.95;;
22679;SDS011;11507;44.858;10.374;2024-03-17T01:07:06;25.40;;;15.45;;
22679;SDS011;11507;44.858;10.374;2024-03-17T01:09:32;23.80;;;14.32;;
22679;SDS011;11507;44.858;10.374;2024-03-17T01:11:59;28.92;;;14.98;;
22679;SDS011;11507;44.858;10.374;2024-03-17T01:14:25;23.55;;;14.50;;
22679;SDS011;11507;44.858;10.374;2024-03-17T01:16:53;27.42;;;14.35;;
22679;SDS011;11507;44.858;10.374;2024-03-17T01:19:19;21.25;;;12.68;;
22679;SDS011;11507;44.858;10.374;2024-03-17T01:21:45;21.08;;;13.20;;
22679;SDS011;11507;44.858;10.374;2024-03-17T01:24:12;17.77;;;11.98;;
22679;SDS011;11507;44.858;10.374;2024-03-17T01:26:38;20.90;;;11.63;;
22679;SDS011;11507;44.858;10.374;2024-03-17T01:29:04;17.02;;;10.98;;
22679;SDS011;11507;44.858;10.374;2024-03-17T01:31:31;20.75;;;11.88;;
22679;SDS011;11507;44.858;10.374;2024-03-17T01:33:57;20.52;;;12.00;;
22679;SDS011;11507;44.858;10.374;2024-03-17T01:36:23;22.85;;;11.35;;
22679;SDS011;11507;44.858;10.374;2024-03-17T01:38:49;24.92;;;11.20;;
22679;SDS011;11507;44.858;10.374;2024-03-17T01:41:16;18.65;;;11.32;;
22679;SDS011;11507;44.858;10.374;2024-03-17T01:43:42;20.67;;;12.27;;
22679;SDS011;11507;44.858;10.374;2024-03-17T01:46:10;24.58;;;12.85;;
22679;SDS011;11507;44.858;10.374;2024-03-17T01:48:41;18.85;;;11.82;;
22679;SDS011;11507;44.858;10.374;2024-03-17T01:51:08;49.70;;;14.45;;
22679;SDS011;11507;44.858;10.374;2024-03-17T01:53:39;21.77;;;11.73;;
22679;SDS011;11507;44.858;10.374;2024-03-17T01:56:05;23.20;;;12.25;;
22679;SDS011;11507;44.858;10.374;2024-03-17T01:58:35;19.08;;;10.35;;
22679;SDS011;11507;44.858;10.374;2024-03-17T02:01:02;20.10;;;11.00;;
22679;SDS011;11507;44.858;10.374;2024-03-17T02:03:32;20.75;;;12.75;;
22679;SDS011;11507;44.858;10.374;2024-03-17T02:05:58;24.00;;;14.35;;
22679;SDS011;11507;44.858;10.374;2024-03-17T02:08:25;25.20;;;14.98;;
22679;SDS011;11507;44.858;10.374;2024-03-17T02:10:52;22.92;;;14.02;;
22679;SDS011;11507;44.858;10.374;2024-03-17T02:13:20;19.42;;;12.05;;
22679;SDS011;11507;44.858;10.374;2024-03-17T02:15:47;20.20;;;12.32;;
22679;SDS011;11507;44.858;10.374;2024-03-17T02:18:13;19.15;;;9.77;;
22679;SDS011;11507;44.858;10.374;2024-03-17T02:20:40;19.85;;;12.68;;
22679;SDS011;11507;44.858;10.374;2024-03-17T02:23:24;25.48;;;13.05;;
22679;SDS011;11507;44.858;10.374;2024-03-17T02:25:52;17.88;;;11.20;;
22679;SDS011;11507;44.858;10.374;2024-03-17T02:28:18;20.20;;;11.88;;
22679;SDS011;11507;44.858;10.374;2024-03-17T02:30:45;21.83;;;12.15;;
22679;SDS011;11507;44.858;10.374;2024-03-17T02:33:11;19.75;;;11.95;;
22679;SDS011;11507;44.858;10.374;2024-03-17T02:35:37;21.75;;;12.57;;
22679;SDS011;11507;44.858;10.374;2024-03-17T02:38:04;21.80;;;12.82;;
22679;SDS011;11507;44.858;10.374;2024-03-17T02:40:30;20.67;;;12.02;;
22679;SDS011;11507;44.858;10.374;2024-03-17T02:42:56;20.60;;;12.88;;
22679;SDS011;11507;44.858;10.374;2024-03-17T02:45:22;21.05;;;12.45;;
22679;SDS011;11507;44.858;10.374;2024-03-17T02:47:49;20.13;;;11.73;;
22679;SDS011;11507;44.858;10.374;2024-03-17T02:50:15;19.67;;;12.45;;
22679;SDS011;11507;44.858;10.374;2024-03-17T02:52:41;21.25;;;11.55;;
22679;SDS011;11507;44.858;10.374;2024-03-17T02:55:08;20.33;;;12.25;;
22679;SDS011;11507;44.858;10.374;2024-03-17T02:57:35;23.33;;;13.23;;
22679;SDS011;11507;44.858;10.374;2024-03-17T03:00:01;17.88;;;11.30;;
22679;SDS011;11507;44.858;10.374;2024-03-17T03:02:30;19.08;;;11.13;;
22679;SDS011;11507;44.858;10.374;2024-03-17T03:04:56;19.15;;;10.82;;
22679;SDS011;11507;44.858;10.374;2024-03-17T03:07:22;18.48;;;11.50;;
22679;SDS011;11507;44.858;10.374;2024-03-17T03:09:49;17.08;;;9.95;;
22679;SDS011;11507;44.858;10.374;2024-03-17T03:12:16;20.42;;;11.18;;
22679;SDS011;11507;44.858;10.374;2024-03-17T03:14:42;18.80;;;10.80;;
22679;SDS011;11507;44.858;10.374;2024-03-17T03:17:09;13.25;;;9.00;;
22679;SDS011;11507;44.858;10.374;2024-03-17T03:19:35;15.93;;;9.35;;
22679;SDS011;11507;44.858;10.374;2024-03-17T03:22:01;17.88;;;10.30;;
22679;SDS011;11507;44.858;10.374;2024-03-17T03:24:27;17.10;;;10.50;;
22679;SDS011;11507;44.858;10.374;2024-03-17T03:26:53;18.33;;;9.80;;
22679;SDS011;11507;44.858;10.374;2024-03-17T03:29:23;14.13;;;9.25;;
22679;SDS011;11507;44.858;10.374;2024-03-17T03:31:49;15.68;;;9.80;;
22679;SDS011;11507;44.858;10.374;2024-03-17T03:34:15;18.33;;;10.98;;
22679;SDS011;11507;44.858;10.374;2024-03-17T03:36:41;19.67;;;11.55;;
22679;SDS011;11507;44.858;10.374;2024-03-17T03:39:08;20.67;;;12.73;;
22679;SDS011;11507;44.858;10.374;2024-03-17T03:41:37;19.27;;;12.52;;
22679;SDS011;11507;44.858;10.374;2024-03-17T03:44:04;21.80;;;13.70;;
22679;SDS011;11507;44.858;10.374;2024-03-17T03:46:30;23.65;;;14.23;;
22679;SDS011;11507;44.858;10.374;2024-03-17T03:48:56;19.35;;;12.35;;
22679;SDS011;11507;44.858;10.374;2024-03-17T03:51:23;19.52;;;11.68;;
22679;SDS011;11507;44.858;10.374;2024-03-17T03:53:50;20.52;;;12.82;;
22679;SDS011;11507;44.858;10.374;2024-03-17T03:56:17;19.05;;;11.68;;
22679;SDS011;11507;44.858;10.374;2024-03-17T03:58:46;17.67;;;11.38;;
22679;SDS011;11507;44.858;10.374;2024-03-17T04:01:12;19.88;;;12.77;;
22679;SDS011;11507;44.858;10.374;2024-03-17T04:03:47;18.13;;;11.45;;
22679;SDS011;11507;44.858;10.374;2024-03-17T04:06:14;22.73;;;13.57;;
22679;SDS011;11507;44.858;10.374;2024-03-17T04:08:41;21.95;;;13.88;;
22679;SDS011;11507;44.858;10.374;2024-03-17T04:11:08;21.10;;;12.27;;
22679;SDS011;11507;44.858;10.374;2024-03-17T04:13:35;16.20;;;10.50;;
22679;SDS011;11507;44.858;10.374;2024-03-17T04:16:04;19.27;;;10.63;;
22679;SDS011;11507;44.858;10.374;2024-03-17T04:18:32;18.42;;;10.77;;
22679;SDS011;11507;44.858;10.374;2024-03-17T04:21:04;21.75;;;12.35;;
22679;SDS011;11507;44.858;10.374;2024-03-17T04:23:32;24.83;;;12.95;;
22679;SDS011;11507;44.858;10.374;2024-03-17T04:25:59;14.80;;;9.02;;
22679;SDS011;11507;44.858;10.374;2024-03-17T04:28:26;21.25;;;12.43;;
22679;SDS011;11507;44.858;10.374;2024-03-17T04:30:52;24.05;;;12.80;;
22679;SDS011;11507;44.858;10.374;2024-03-17T04:33:27;23.27;;;13.32;;
22679;SDS011;11507;44.858;10.374;2024-03-17T04:35:53;22.65;;;13.38;;
22679;SDS011;11507;44.858;10.374;2024-03-17T04:38:19;17.50;;;11.52;;
22679;SDS011;11507;44.858;10.374;2024-03-17T04:40:45;18.92;;;11.45;;
22679;SDS011;11507;44.858;10.374;2024-03-17T04:43:12;18.63;;;11.80;;
22679;SDS011;11507;44.858;10.374;2024-03-17T04:45:38;22.10;;;12.52;;
22679;SDS011;11507;44.858;10.374;2024-03-17T04:48:05;27.17;;;12.70;;
22679;SDS011;11507;44.858;10.374;2024-03-17T04:50:32;19.75;;;12.55;;
22679;SDS011;11507;44.858;10.374;2024-03-17T04:52:59;24.70;;;14.63;;
22679;SDS011;11507;44.858;10.374;2024-03-17T04:55:26;24.75;;;12.25;;
22679;SDS011;11507;44.858;10.374;2024-03-17T04:57:52;22.70;;;13.35;;
22679;SDS011;11507;44.858;10.374;2024-03-17T05:00:18;21.58;;;13.38;;
22679;SDS011;11507;44.858;10.374;2024-03-17T05:02:45;24.08;;;14.25;;
22679;SDS011;11507;44.858;10.374;2024-03-17T05:05:11;26.33;;;14.13;;
22679;SDS011;11507;44.858;10.374;2024-03-17T05:07:38;20.50;;;12.95;;
22679;SDS011;11507;44.858;10.374;2024-03-17T05:10:04;21.60;;;12.43;;
22679;SDS011;11507;44.858;10.374;2024-03-17T05:12:32;20.25;;;12.20;;
22679;SDS011;11507;44.858;10.374;2024-03-17T05:14:58;17.92;;;10.48;;
22679;SDS011;11507;44.858;10.374;2024-03-17T05:17:24;19.88;;;10.63;;
22679;SDS011;11507;44.858;10.374;2024-03-17T05:19:51;19.55;;;11.40;;
22679;SDS011;11507;44.858;10.374;2024-03-17T05:22:17;23.55;;;12.85;;
22679;SDS011;11507;44.858;10.374;2024-03-17T05:24:43;23.58;;;12.77;;
22679;SDS011;11507;44.858;10.374;2024-03-17T05:27:10;19.88;;;12.32;;
22679;SDS011;11507;44.858;10.374;2024-03-17T05:29:36;20.33;;;12.27;;
22679;SDS011;11507;44.858;10.374;2024-03-17T05:32:03;22.30;;;12.07;;
22679;SDS011;11507;44.858;10.374;2024-03-17T05:34:30;18.52;;;10.63;;
22679;SDS011;11507;44.858;10.374;2024-03-17T05:36:58;29.42;;;16.48;;
22679;SDS011;11507;44.858;10.374;2024-03-17T05:39:24;24.80;;;15.25;;
22679;SDS011;11507;44.858;10.374;2024-03-17T05:41:51;22.90;;;13.95;;
22679;SDS011;11507;44.858;10.374;2024-03-17T05:44:17;23.60;;;13.90;;
22679;SDS011;11507;44.858;10.374;2024-03-17T05:46:43;20.00;;;13.25;;
22679;SDS011;11507;44.858;10.374;2024-03-17T05:49:10;22.75;;;14.43;;
22679;SDS011;11507;44.858;10.374;2024-03-17T05:51:36;22.60;;;14.13;;
22679;SDS011;11507;44.858;10.374;2024-03-17T05:54:02;21.33;;;13.38;;
22679;SDS011;11507;44.858;10.374;2024-03-17T05:56:29;20.27;;;12.10;;
22679;SDS011;11507;44.858;10.374;2024-03-17T05:58:55;21.85;;;11.48;;
22679;SDS011;11507;44.858;10.374;2024-03-17T06:01:21;21.65;;;12.07;;
22679;SDS011;11507;44.858;10.374;2024-03-17T06:03:48;17.98;;;10.88;;
22679;SDS011;11507;44.858;10.374;2024-03-17T06:06:14;20.13;;;11.82;;
22679;SDS011;11507;44.858;10.374;2024-03-17T06:08:40;21.83;;;12.20;;
22679;SDS011;11507;44.858;10.374;2024-03-17T06:11:06;22.50;;;12.02;;
22679;SDS011;11507;44.858;10.374;2024-03-17T06:13:33;19.48;;;11.50;;
22679;SDS011;11507;44.858;10.374;2024-03-17T06:16:03;19.38;;;11.15;;
22679;SDS011;11507;44.858;10.374;2024-03-17T06:18:30;18.92;;;11.45;;
22679;SDS011;11507;44.858;10.374;2024-03-17T06:20:57;22.88;;;13.38;;
22679;SDS011;11507;44.858;10.374;2024-03-17T06:23:23;18.17;;;11.63;;
22679;SDS011;11507;44.858;10.374;2024-03-17T06:25:52;19.35;;;12.05;;
22679;SDS011;11507;44.858;10.374;2024-03-17T06:28:22;18.50;;;12.13;;
22679;SDS011;11507;44.858;10.374;2024-03-17T06:30:55;18.23;;;11.43;;
22679;SDS011;11507;44.858;10.374;2024-03-17T06:33:24;18.45;;;11.63;;
22679;SDS011;11507;44.858;10.374;2024-03-17T06:35:53;21.27;;;12.23;;
22679;SDS011;11507;44.858;10.374;2024-03-17T06:38:20;18.48;;;11.65;;
22679;SDS011;11507;44.858;10.374;2024-03-17T06:40:50;19.95;;;10.95;;
22679;SDS011;11507;44.858;10.374;2024-03-17T06:43:17;19.95;;;11.65;;
22679;SDS011;11507;44.858;10.374;2024-03-17T06:46:06;18.48;;;10.65;;
22679;SDS011;11507;44.858;10.374;2024-03-17T06:48:33;16.92;;;10.80;;
22679;SDS011;11507;44.858;10.374;2024-03-17T06:50:59;18.80;;;11.20;;
22679;SDS011;11507;44.858;10.374;2024-03-17T06:53:25;17.10;;;10.93;;
22679;SDS011;11507;44.858;10.374;2024-03-17T06:55:52;16.77;;;10.65;;
22679;SDS011;11507;44.858;10.374;2024-03-17T06:58:20;16.95;;;10.90;;
22679;SDS011;11507;44.858;10.374;2024-03-17T07:00:55;16.33;;;10.13;;
22679;SDS011;11507;44.858;10.374;2024-03-17T07:03:29;16.50;;;10.10;;
22679;SDS011;11507;44.858;10.374;2024-03-17T07:05:59;18.70;;;9.95;;
22679;SDS011;11507;44.858;10.374;2024-03-17T07:08:29;15.15;;;9.80;;
22679;SDS011;11507;44.858;10.374;2024-03-17T07:13:29;13.43;;;9.13;;
22679;SDS011;11507;44.858;10.374;2024-03-17T07:16:01;12.70;;;8.63;;
22679;SDS011;11507;44.858;10.374;2024-03-17T07:18:29;14.65;;;9.00;;
22679;SDS011;11507;44.858;10.374;2024-03-17T07:20:56;14.07;;;9.20;;
22679;SDS011;11507;44.858;10.374;2024-03-17T07:23:24;13.10;;;8.48;;
22679;SDS011;11507;44.858;10.374;2024-03-17T07:25:51;16.33;;;9.27;;
22679;SDS011;11507;44.858;10.374;2024-03-17T07:28:23;17.17;;;9.35;;
22679;SDS011;11507;44.858;10.374;2024-03-17T07:30:53;13.85;;;8.27;;
22679;SDS011;11507;44.858;10.374;2024-03-17T07:33:21;14.48;;;8.57;;
22679;SDS011;11507;44.858;10.374;2024-03-17T07:35:49;13.35;;;8.50;;
22679;SDS011;11507;44.858;10.374;2024-03-17T07:38:20;10.70;;;7.35;;
22679;SDS011;11507;44.858;10.374;2024-03-17T07:40:55;12.05;;;7.20;;
22679;SDS011;11507;44.858;10.374;2024-03-17T07:43:26;12.98;;;7.55;;
22679;SDS011;11507;44.858;10.374;2024-03-17T07:46:08;13.38;;;7.40;;
22679;SDS011;11507;44.858;10.374;2024-03-17T07:48:38;11.13;;;6.47;;
22679;SDS011;11507;44.858;10.374;2024-03-17T07:51:06;9.85;;;6.05;;
22679;SDS011;11507;44.858;10.374;2024-03-17T07:53:34;8.52;;;6.38;;
22679;SDS011;11507;44.858;10.374;2024-03-17T07:56:03;10.80;;;6.20;;
22679;SDS011;11507;44.858;10.374;2024-03-17T07:58:30;9.90;;;6.75;;
22679;SDS011;11507;44.858;10.374;2024-03-17T08:01:02;9.95;;;6.78;;
22679;SDS011;11507;44.858;10.374;2024-03-17T08:03:30;11.88;;;7.80;;
22679;SDS011;11507;44.858;10.374;2024-03-17T08:05:58;14.85;;;8.80;;
22679;SDS011;11507;44.858;10.374;2024-03-17T08:08:24;13.52;;;9.68;;
22679;SDS011;11507;44.858;10.374;2024-03-17T08:10:51;16.08;;;9.07;;
22679;SDS011;11507;44.858;10.374;2024-03-17T08:13:17;13.18;;;8.55;;
22679;SDS011;11507;44.858;10.374;2024-03-17T08:15:45;14.77;;;9.07;;
22679;SDS011;11507;44.858;10.374;2024-03-17T08:18:15;14.73;;;8.82;;
22679;SDS011;11507;44.858;10.374;2024-03-17T08:20:44;12.00;;;9.07;;
22679;SDS011;11507;44.858;10.374;2024-03-17T08:23:12;14.25;;;8.90;;
22679;SDS011;11507;44.858;10.374;2024-03-17T08:25:39;12.73;;;8.65;;
22679;SDS011;11507;44.858;10.374;2024-03-17T08:28:05;13.43;;;8.75;;
22679;SDS011;11507;44.858;10.374;2024-03-17T08:30:35;12.07;;;8.32;;
22679;SDS011;11507;44.858;10.374;2024-03-17T08:33:01;12.18;;;7.97;;
22679;SDS011;11507;44.858;10.374;2024-03-17T08:35:28;12.63;;;8.35;;
22679;SDS011;11507;44.858;10.374;2024-03-17T08:37:54;11.38;;;7.70;;
22679;SDS011;11507;44.858;10.374;2024-03-17T08:40:21;12.13;;;8.32;;
22679;SDS011;11507;44.858;10.374;2024-03-17T08:42:50;11.85;;;7.47;;
22679;SDS011;11507;44.858;10.374;2024-03-17T08:45:17;11.48;;;7.38;;
22679;SDS011;11507;44.858;10.374;2024-03-17T08:47:43;12.43;;;7.25;;
22679;SDS011;11507;44.858;10.374;2024-03-17T08:50:09;12.18;;;8.30;;
22679;SDS011;11507;44.858;10.374;2024-03-17T08:52:37;9.63;;;7.15;;
22679;SDS011;11507;44.858;10.374;2024-03-17T08:55:04;13.55;;;8.20;;
22679;SDS011;11507;44.858;10.374;2024-03-17T08:57:35;11.75;;;6.95;;
22679;SDS011;11507;44.858;10.374;2024-03-17T09:00:01;9.00;;;6.32;;
22679;SDS011;11507;44.858;10.374;2024-03-17T09:02:28;13.52;;;8.18;;
22679;SDS011;11507;44.858;10.374;2024-03-17T09:04:54;12.25;;;8.20;;
22679;SDS011;11507;44.858;10.374;2024-03-17T09:07:20;9.80;;;6.60;;
22679;SDS011;11507;44.858;10.374;2024-03-17T09:09:47;9.57;;;6.78;;
22679;SDS011;11507;44.858;10.374;2024-03-17T09:12:13;13.05;;;7.55;;
22679;SDS011;11507;44.858;10.374;2024-03-17T09:14:40;12.07;;;7.35;;
22679;SDS011;11507;44.858;10.374;2024-03-17T09:17:06;10.93;;;7.40;;
22679;SDS011;11507;44.858;10.374;2024-03-17T09:19:33;12.50;;;7.32;;
22679;SDS011;11507;44.858;10.374;2024-03-17T09:21:59;14.80;;;7.90;;
22679;SDS011;11507;44.858;10.374;2024-03-17T09:24:25;12.73;;;7.93;;
22679;SDS011;11507;44.858;10.374;2024-03-17T09:26:52;10.65;;;7.40;;
22679;SDS011;11507;44.858;10.374;2024-03-17T09:29:18;11.77;;;6.85;;
22679;SDS011;11507;44.858;10.374;2024-03-17T09:31:45;11.23;;;7.00;;
22679;SDS011;11507;44.858;10.374;2024-03-17T09:34:11;10.25;;;6.47;;
22679;SDS011;11507;44.858;10.374;2024-03-17T09:36:37;9.50;;;6.65;;
22679;SDS011;11507;44.858;10.374;2024-03-17T09:39:04;12.68;;;7.10;;
22679;SDS011;11507;44.858;10.374;2024-03-17T09:41:30;10.38;;;6.60;;
22679;SDS011;11507;44.858;10.374;2024-03-17T09:43:57;11.93;;;6.90;;
22679;SDS011;11507;44.858;10.374;2024-03-17T09:46:24;11.98;;;6.47;;
22679;SDS011;11507;44.858;10.374;2024-03-17T09:48:52;11.15;;;7.47;;
22679;SDS011;11507;44.858;10.374;2024-03-17T09:51:23;9.85;;;7.32;;
22679;SDS011;11507;44.858;10.374;2024-03-17T09:53:51;9.77;;;6.82;;
22679;SDS011;11507;44.858;10.374;2024-03-17T09:56:19;11.10;;;7.40;;
22679;SDS011;11507;44.858;10.374;2024-03-17T09:58:46;12.52;;;7.88;;
22679;SDS011;11507;44.858;10.374;2024-03-17T10:01:14;12.05;;;7.57;;
22679;SDS011;11507;44.858;10.374;2024-03-17T10:03:42;10.82;;;7.60;;
22679;SDS011;11507;44.858;10.374;2024-03-17T10:06:20;11.48;;;7.82;;
22679;SDS011;11507;44.858;10.374;2024-03-17T10:08:48;14.07;;;8.20;;
22679;SDS011;11507;44.858;10.374;2024-03-17T10:11:17;12.77;;;8.43;;
22679;SDS011;11507;44.858;10.374;2024-03-17T10:13:45;9.98;;;8.23;;
22679;SDS011;11507;44.858;10.374;2024-03-17T10:16:22;11.20;;;8.15;;
22679;SDS011;11507;44.858;10.374;2024-03-17T10:18:50;12.70;;;8.32;;
22679;SDS011;11507;44.858;10.374;2024-03-17T10:21:45;12.77;;;8.45;;
22679;SDS011;11507;44.858;10.374;2024-03-17T10:24:20;13.48;;;9.13;;
22679;SDS011;11507;44.858;10.374;2024-03-17T10:26:51;10.40;;;7.82;;
22679;SDS011;11507;44.858;10.374;2024-03-17T10:29:35;11.32;;;8.45;;
22679;SDS011;11507;44.858;10.374;2024-03-17T10:32:12;12.32;;;8.52;;
22679;SDS011;11507;44.858;10.374;2024-03-17T10:34:39;12.07;;;8.40;;
22679;SDS011;11507;44.858;10.374;2024-03-17T10:39:37;13.93;;;8.63;;
22679;SDS011;11507;44.858;10.374;2024-03-17T10:42:05;12.18;;;8.35;;
22679;SDS011;11507;44.858;10.374;2024-03-17T10:44:33;13.05;;;8.10;;
22679;SDS011;11507;44.858;10.374;2024-03-17T10:47:01;13.65;;;9.00;;
22679;SDS011;11507;44.858;10.374;2024-03-17T10:51:59;15.23;;;10.38;;
22679;SDS011;11507;44.858;10.374;2024-03-17T10:54:46;15.40;;;11.57;;
22679;SDS011;11507;44.858;10.374;2024-03-17T11:00:02;12.93;;;9.82;;
22679;SDS011;11507;44.858;10.374;2024-03-17T11:02:31;15.05;;;9.70;;
22679;SDS011;11507;44.858;10.374;2024-03-17T11:04:58;12.55;;;9.05;;
22679;SDS011;11507;44.858;10.374;2024-03-17T11:07:27;12.95;;;8.75;;
22679;SDS011;11507;44.858;10.374;2024-03-17T11:10:02;13.43;;;8.90;;
22679;SDS011;11507;44.858;10.374;2024-03-17T11:12:46;14.43;;;8.95;;
22679;SDS011;11507;44.858;10.374;2024-03-17T11:17:56;15.18;;;9.60;;
22679;SDS011;11507;44.858;10.374;2024-03-17T11:23:34;15.13;;;10.10;;
22679;SDS011;11507;44.858;10.374;2024-03-17T11:26:02;11.65;;;9.23;;
22679;SDS011;11507;44.858;10.374;2024-03-17T11:28:51;14.38;;;9.90;;
22679;SDS011;11507;44.858;10.374;2024-03-17T11:31:36;11.63;;;9.00;;
22679;SDS011;11507;44.858;10.374;2024-03-17T11:34:25;14.85;;;10.02;;
22679;SDS011;11507;44.858;10.374;2024-03-17T11:36:56;14.90;;;10.65;;
22679;SDS011;11507;44.858;10.374;2024-03-17T11:42:14;17.25;;;11.02;;
22679;SDS011;11507;44.858;10.374;2024-03-17T11:44:42;15.23;;;11.68;;
22679;SDS011;11507;44.858;10.374;2024-03-17T11:47:10;17.42;;;13.02;;
22679;SDS011;11507;44.858;10.374;2024-03-17T11:49:37;16.27;;;12.68;;
22679;SDS011;11507;44.858;10.374;2024-03-17T11:52:09;16.85;;;12.25;;
22679;SDS011;11507;44.858;10.374;2024-03-17T11:54:40;19.55;;;12.93;;
22679;SDS011;11507;44.858;10.374;2024-03-17T11:57:11;18.75;;;12.82;;
22679;SDS011;11507;44.858;10.374;2024-03-17T11:59:39;17.17;;;12.13;;
22679;SDS011;11507;44.858;10.374;2024-03-17T12:02:19;16.77;;;12.30;;
22679;SDS011;11507;44.858;10.374;2024-03-17T12:04:51;16.25;;;11.77;;
22679;SDS011;11507;44.858;10.374;2024-03-17T12:07:27;18.48;;;13.20;;
22679;SDS011;11507;44.858;10.374;2024-03-17T12:09:55;18.38;;;12.38;;
22679;SDS011;11507;44.858;10.374;2024-03-17T12:12:26;16.27;;;12.00;;
22679;SDS011;11507;44.858;10.374;2024-03-17T12:15:05;17.20;;;12.95;;
22679;SDS011;11507;44.858;10.374;2024-03-17T12:17:42;19.40;;;12.52;;
22679;SDS011;11507;44.858;10.374;2024-03-17T12:20:19;18.42;;;13.70;;
22679;SDS011;11507;44.858;10.374;2024-03-17T12:22:46;18.42;;;12.70;;
22679;SDS011;11507;44.858;10.374;2024-03-17T12:25:19;19.45;;;13.80;;
22679;SDS011;11507;44.858;10.374;2024-03-17T12:27:46;18.48;;;14.43;;
22679;SDS011;11507;44.858;10.374;2024-03-17T12:30:14;17.30;;;12.77;;
22679;SDS011;11507;44.858;10.374;2024-03-17T12:32:42;18.92;;;13.50;;
22679;SDS011;11507;44.858;10.374;2024-03-17T12:35:11;18.35;;;13.30;;
22679;SDS011;11507;44.858;10.374;2024-03-17T12:37:40;17.70;;;13.57;;
22679;SDS011;11507;44.858;10.374;2024-03-17T12:40:20;20.77;;;15.25;;
22679;SDS011;11507;44.858;10.374;2024-03-17T12:42:50;18.83;;;14.75;;
22679;SDS011;11507;44.858;10.374;2024-03-17T12:45:21;19.70;;;15.60;;
22679;SDS011;11507;44.858;10.374;2024-03-17T12:47:48;20.73;;;15.50;;
22679;SDS011;11507;44.858;10.374;2024-03-17T12:50:16;18.90;;;15.23;;
22679;SDS011;11507;44.858;10.374;2024-03-17T12:52:51;19.73;;;15.80;;
22679;SDS011;11507;44.858;10.374;2024-03-17T13:03:27;18.90;;;14.77;;
22679;SDS011;11507;44.858;10.374;2024-03-17T13:05:55;19.75;;;16.27;;
22679;SDS011;11507;44.858;10.374;2024-03-17T13:08:21;19.20;;;15.73;;
22679;SDS011;11507;44.858;10.374;2024-03-17T13:10:47;19.02;;;14.93;;
22679;SDS011;11507;44.858;10.374;2024-03-17T13:13:14;19.65;;;15.52;;
22679;SDS011;11507;44.858;10.374;2024-03-17T13:15:41;20.85;;;16.45;;
22679;SDS011;11507;44.858;10.374;2024-03-17T13:18:08;19.75;;;15.32;;
22679;SDS011;11507;44.858;10.374;2024-03-17T13:20:41;20.75;;;17.02;;
22679;SDS011;11507;44.858;10.374;2024-03-17T13:23:07;21.48;;;17.10;;
22679;SDS011;11507;44.858;10.374;2024-03-17T13:25:33;21.88;;;16.15;;
22679;SDS011;11507;44.858;10.374;2024-03-17T13:28:06;21.55;;;17.00;;
22679;SDS011;11507;44.858;10.374;2024-03-17T13:30:32;21.60;;;16.55;;
22679;SDS011;11507;44.858;10.374;2024-03-17T13:33:02;20.08;;;15.52;;
22679;SDS011;11507;44.858;10.374;2024-03-17T13:35:37;22.65;;;15.98;;
22679;SDS011;11507;44.858;10.374;2024-03-17T13:38:05;25.48;;;17.23;;
22679;SDS011;11507;44.858;10.374;2024-03-17T13:40:32;20.50;;;15.02;;
22679;SDS011;11507;44.858;10.374;2024-03-17T13:43:00;22.15;;;16.60;;
22679;SDS011;11507;44.858;10.374;2024-03-17T13:45:30;21.40;;;16.55;;
22679;SDS011;11507;44.858;10.374;2024-03-17T13:48:05;21.73;;;16.50;;
22679;SDS011;11507;44.858;10.374;2024-03-17T13:50:38;25.90;;;18.38;;
22679;SDS011;11507;44.858;10.374;2024-03-17T13:53:07;21.73;;;17.02;;
22679;SDS011;11507;44.858;10.374;2024-03-17T13:55:34;22.00;;;16.25;;
22679;SDS011;11507;44.858;10.374;2024-03-17T13:58:00;21.05;;;17.08;;
22679;SDS011;11507;44.858;10.374;2024-03-17T14:00:27;24.33;;;17.80;;
22679;SDS011;11507;44.858;10.374;2024-03-17T14:02:55;23.55;;;17.48;;
22679;SDS011;11507;44.858;10.374;2024-03-17T14:05:22;22.15;;;16.92;;
22679;SDS011;11507;44.858;10.374;2024-03-17T14:07:51;22.63;;;17.02;;
22679;SDS011;11507;44.858;10.374;2024-03-17T14:10:18;21.90;;;17.35;;
22679;SDS011;11507;44.858;10.374;2024-03-17T14:12:45;26.40;;;18.00;;
22679;SDS011;11507;44.858;10.374;2024-03-17T14:15:12;23.95;;;18.02;;
22679;SDS011;11507;44.858;10.374;2024-03-17T14:17:40;23.60;;;17.33;;
22679;SDS011;11507;44.858;10.374;2024-03-17T14:20:07;21.73;;;17.77;;
22679;SDS011;11507;44.858;10.374;2024-03-17T14:22:38;23.10;;;17.83;;
22679;SDS011;11507;44.858;10.374;2024-03-17T14:25:09;20.98;;;16.73;;
22679;SDS011;11507;44.858;10.374;2024-03-17T14:27:40;24.80;;;17.35;;
22679;SDS011;11507;44.858;10.374;2024-03-17T14:30:06;23.25;;;17.27;;
22679;SDS011;11507;44.858;10.374;2024-03-17T14:32:33;21.10;;;17.15;;
22679;SDS011;11507;44.858;10.374;2024-03-17T14:35:00;23.15;;;17.13;;
22679;SDS011;11507;44.858;10.374;2024-03-17T14:37:26;24.10;;;17.15;;
22679;SDS011;11507;44.858;10.374;2024-03-17T14:39:53;23.55;;;18.70;;
22679;SDS011;11507;44.858;10.374;2024-03-17T14:42:20;24.00;;;19.05;;
22679;SDS011;11507;44.858;10.374;2024-03-17T14:44:46;26.45;;;19.08;;
22679;SDS011;11507;44.858;10.374;2024-03-17T14:47:13;25.80;;;17.88;;